Time;durP1;ratioP1;P1;durP2;ratioP2;P2;SDS_P1;SDS_P2;PMS_P1;PMS_P2;Temp;Humidity;BMP_temperature;BMP_pressure;BME280_temperature;BME280_humidity;BME280_pressure;Samples;Min_cycle;Max_cycle;Signal;HPM_P1;HPM_P2
2022/04/04 00:00:44;;;;;;;8.80;3.33;;;;;;;2.15;77.51;100519.22;5093726;28;20037;-80
2022/04/04 00:03:09;;;;;;;6.28;3.30;;;;;;;2.21;76.68;100521.28;5094068;28;20107;-80
2022/04/04 00:05:36;;;;;;;7.57;3.53;;;;;;;2.16;76.99;100523.53;5095520;28;20067;-80
2022/04/04 00:08:01;;;;;;;7.18;3.50;;;;;;;2.12;77.11;100520.38;5095677;28;20044;-79
2022/04/04 00:10:26;;;;;;;7.03;3.27;;;;;;;2.11;77.33;100525.81;5095748;28;20121;-80
2022/04/04 00:12:52;;;;;;;7.37;3.20;;;;;;;2.10;77.71;100517.00;5098813;28;20286;-79
2022/04/04 00:15:17;;;;;;;8.38;2.92;;;;;;;2.12;77.09;100512.38;5098559;28;20451;-80
2022/04/04 00:17:43;;;;;;;7.63;3.45;;;;;;;2.11;77.29;100523.16;5098735;28;20389;-80
2022/04/04 00:20:10;;;;;;;10.68;3.10;;;;;;;2.11;77.25;100513.38;5098263;28;20071;-79
2022/04/04 00:22:35;;;;;;;7.25;3.03;;;;;;;2.15;77.02;100505.94;5098660;28;20036;-80
2022/04/04 00:25:00;;;;;;;7.22;3.15;;;;;;;2.22;76.15;100509.66;5098210;28;20028;-80
2022/04/04 00:27:26;;;;;;;5.63;2.97;;;;;;;2.07;76.87;100504.00;5099643;28;20044;-79
2022/04/04 00:29:52;;;;;;;8.03;3.03;;;;;;;2.08;76.68;100505.69;5100832;28;20100;-79
2022/04/04 00:32:17;;;;;;;8.95;3.05;;;;;;;1.94;77.47;100500.88;5100726;28;20325;-79
2022/04/04 00:34:42;;;;;;;5.30;2.75;;;;;;;1.96;77.45;100509.53;5099763;28;20028;-79
2022/04/04 00:37:08;;;;;;;5.67;2.97;;;;;;;1.94;77.73;100506.19;5098931;28;20374;-81
2022/04/04 00:39:33;;;;;;;9.03;3.80;;;;;;;2.02;77.28;100498.28;5099509;28;20428;-80
2022/04/04 00:41:58;;;;;;;7.73;2.83;;;;;;;1.93;77.57;100499.19;5099915;28;20316;-80
2022/04/04 00:44:25;;;;;;;6.57;2.90;;;;;;;1.97;77.45;100495.28;5099238;28;20027;-80
2022/04/04 00:46:51;;;;;;;5.72;2.90;;;;;;;1.91;78.04;100487.88;5097826;28;20028;-79
2022/04/04 00:49:17;;;;;;;;;;;;;;;1.94;77.82;100476.97;5099179;28;20113;-80
2022/04/04 00:51:42;;;;;;;6.95;3.15;;;;;;;1.82;78.09;100484.28;5098448;28;19955;-80
2022/04/04 00:54:08;;;;;;;7.40;3.55;;;;;;;1.78;78.40;100484.72;5097020;28;20025;-80
2022/04/04 00:56:35;;;;;;;6.65;3.20;;;;;;;1.68;79.09;100469.66;5098099;28;20031;-80
2022/04/04 00:59:03;;;;;;;13.73;3.55;;;;;;;1.66;79.11;100471.63;5098943;28;20020;-80
2022/04/04 01:01:29;;;;;;;7.78;3.58;;;;;;;1.60;79.33;100472.22;5097935;28;20059;-80
2022/04/04 01:03:55;;;;;;;8.30;4.10;;;;;;;1.62;79.10;100456.94;5097794;28;20024;-80
2022/04/04 01:06:20;;;;;;;7.47;3.35;;;;;;;1.69;79.20;100463.38;5097474;28;20036;-80
2022/04/04 01:08:46;;;;;;;7.53;3.20;;;;;;;1.77;78.79;100464.47;5097372;28;20024;-82
2022/04/04 01:11:11;;;;;;;6.85;3.38;;;;;;;1.67;79.30;100462.66;5098042;28;20032;-79
2022/04/04 01:13:37;;;;;;;7.78;3.25;;;;;;;1.62;79.78;100446.34;5097616;28;20031;-80
2022/04/04 01:16:03;;;;;;;7.57;2.75;;;;;;;1.61;79.40;100446.50;5097752;28;20111;-80
2022/04/04 01:18:28;;;;;;;6.25;2.95;;;;;;;1.59;79.61;100446.66;5097471;28;20067;-80
2022/04/04 01:20:54;;;;;;;8.97;3.10;;;;;;;1.51;80.28;100443.88;5097233;28;20028;-80
2022/04/04 01:23:24;;;;;;;8.03;2.77;;;;;;;1.55;80.30;100436.47;5096771;28;20258;-79
2022/04/04 01:25:49;;;;;;;6.43;3.05;;;;;;;1.54;80.26;100438.28;5097101;28;20103;-80
2022/04/04 01:28:15;;;;;;;6.43;2.85;;;;;;;1.54;80.52;100435.63;5096993;28;20107;-79
2022/04/04 01:30:40;;;;;;;6.97;3.70;;;;;;;1.59;80.40;100427.22;5097093;28;20020;-80
2022/04/04 01:33:07;;;;;;;8.20;2.85;;;;;;;1.55;80.21;100428.50;5097540;28;20035;-82
2022/04/04 01:35:32;;;;;;;;;;;;;;;1.52;80.15;100420.81;5097604;28;20436;-79
2022/04/04 01:37:58;;;;;;;4.90;2.53;;;;;;;1.57;80.45;100416.75;5097145;28;19919;-79
2022/04/04 01:40:24;;;;;;;6.60;3.00;;;;;;;1.66;79.71;100410.53;5097084;28;20120;-79
2022/04/04 01:42:54;;;;;;;6.88;2.58;;;;;;;1.53;80.74;100410.06;5097086;28;20477;-80
2022/04/04 01:46:23;;;;;;;7.15;2.95;;;;;;;1.49;80.42;100416.63;5097036;28;20031;-79
2022/04/04 01:48:06;;;;;;;7.75;2.95;;;;;;;1.54;80.49;100401.09;5096723;28;20031;-79
2022/04/04 01:50:31;;;;;;;6.97;2.78;;;;;;;1.49;80.51;100400.69;5097285;28;20027;-79
2022/04/04 01:53:25;;;;;;;8.35;2.72;;;;;;;1.53;80.64;100407.41;5096302;28;20441;-78
2022/04/04 01:55:45;;;;;;;6.63;2.75;;;;;;;1.56;80.32;100395.66;5096701;28;20093;-79
2022/04/04 01:58:10;;;;;;;7.85;2.55;;;;;;;1.67;80.16;100379.50;5096832;28;20065;-78
2022/04/04 02:00:38;;;;;;;6.30;2.72;;;;;;;1.66;79.83;100377.81;5096370;28;20528;-80
2022/04/04 02:03:04;;;;;;;7.65;2.53;;;;;;;1.65;79.79;100379.66;5096797;28;20040;-78
2022/04/04 02:05:29;;;;;;;5.35;2.55;;;;;;;1.78;79.42;100367.84;5096682;28;20443;-80
2022/04/04 02:07:54;;;;;;;4.70;2.40;;;;;;;1.64;80.11;100374.47;5096962;28;20024;-79
2022/04/04 02:10:21;;;;;;;4.93;2.30;;;;;;;1.69;79.76;100367.75;5096725;28;20039;-79
2022/04/04 02:12:46;;;;;;;5.22;2.53;;;;;;;1.68;80.16;100362.59;5096280;28;20027;-79
2022/04/04 02:15:13;;;;;;;5.95;2.42;;;;;;;1.60;80.15;100358.03;5096502;28;20024;-79
2022/04/04 02:17:38;;;;;;;;;;;;;;;1.60;79.37;100358.03;5097816;28;20044;-80
2022/04/04 02:20:04;;;;;;;5.53;2.30;;;;;;;1.68;79.31;100351.97;5096042;28;19957;-80
2022/04/04 02:22:29;;;;;;;5.50;2.58;;;;;;;1.72;78.98;100350.69;5096374;28;20498;-79
2022/04/04 02:24:55;;;;;;;6.93;2.90;;;;;;;1.76;78.51;100345.91;5095751;28;20466;-79
2022/04/04 02:27:20;;;;;;;6.68;2.70;;;;;;;1.72;78.64;100338.22;5096289;28;20031;-79
2022/04/04 02:29:45;;;;;;;6.30;2.30;;;;;;;1.85;78.08;100331.72;5096231;28;20464;-79
2022/04/04 02:32:10;;;;;;;5.93;2.87;;;;;;;1.85;78.27;100327.22;5096733;28;20411;-80
2022/04/04 02:34:36;;;;;;;6.20;2.43;;;;;;;1.86;77.79;100328.91;5096349;28;20036;-80
2022/04/04 02:37:01;;;;;;;5.53;2.10;;;;;;;1.84;77.84;100328.22;5096993;28;20121;-80
2022/04/04 02:39:26;;;;;;;8.70;3.37;;;;;;;1.85;77.67;100324.56;5096475;28;20089;-80
2022/04/04 02:41:52;;;;;;;6.47;2.90;;;;;;;1.88;77.59;100315.47;5096411;28;20265;-79
2022/04/04 02:44:18;;;;;;;7.67;3.17;;;;;;;1.96;77.31;100311.09;5095782;28;20055;-79
2022/04/04 02:46:43;;;;;;;7.03;2.63;;;;;;;1.93;77.68;100306.06;5096422;28;20262;-80
2022/04/04 02:49:08;;;;;;;6.27;2.73;;;;;;;2.07;77.13;100297.53;5095805;28;20386;-80
2022/04/04 02:51:34;;;;;;;7.50;3.37;;;;;;;2.09;76.77;100297.41;5094472;28;20020;-79
2022/04/04 02:53:59;;;;;;;7.72;3.17;;;;;;;2.16;76.77;100293.13;5095580;28;20370;-79
2022/04/04 02:56:30;;;;;;;6.97;3.25;;;;;;;2.20;76.05;100283.03;5094550;28;20032;-80
2022/04/04 02:58:58;;;;;;;7.07;2.78;;;;;;;2.21;75.82;100284.69;5095860;28;20024;-78
2022/04/04 03:01:23;;;;;;;8.60;3.20;;;;;;;2.29;75.91;100276.78;5095871;28;20055;-79
2022/04/04 03:03:49;;;;;;;8.85;3.65;;;;;;;2.25;76.20;100276.25;5096318;28;20031;-79
2022/04/04 03:06:15;;;;;;;7.43;2.93;;;;;;;2.21;76.21;100271.41;5096504;28;20036;-79
2022/04/04 03:08:41;;;;;;;6.72;3.20;;;;;;;2.21;76.25;100280.22;5095655;28;20530;-79
2022/04/04 03:11:06;;;;;;;6.38;2.58;;;;;;;2.10;76.64;100269.84;5095303;28;20043;-80
2022/04/04 03:13:32;;;;;;;7.68;3.00;;;;;;;2.12;76.44;100269.69;5095937;28;20024;-79
2022/04/04 03:15:57;;;;;;;6.22;2.63;;;;;;;2.11;76.33;100274.16;5095619;28;20032;-79
2022/04/04 03:18:23;;;;;;;4.97;2.45;;;;;;;2.22;76.09;100260.63;5096546;28;20060;-80
2022/04/04 03:20:49;;;;;;;;;;;;;;;2.16;76.70;100260.38;5097106;28;20043;-80
2022/04/04 03:23:14;;;;;;;5.40;2.45;;;;;;;2.09;76.40;100254.88;5095314;28;19908;-79
2022/04/04 03:25:40;;;;;;;6.40;2.67;;;;;;;2.03;76.58;100251.00;5096466;28;20375;-80
2022/04/04 03:28:06;;;;;;;8.27;3.20;;;;;;;2.04;76.64;100235.91;5095990;28;20732;-80
2022/04/04 03:30:31;;;;;;;9.55;3.22;;;;;;;2.11;76.53;100239.63;5095699;28;20378;-79
2022/04/04 03:32:58;;;;;;;4.88;2.42;;;;;;;2.08;76.30;100223.97;5095365;28;20486;-78
2022/04/04 03:35:24;;;;;;;;;;;;;;;2.07;76.16;100228.44;5096170;28;20028;-78
2022/04/04 03:37:52;;;;;;;9.70;3.30;;;;;;;2.07;76.18;100215.16;5094765;28;19995;-79
2022/04/04 03:40:19;;;;;;;9.10;3.05;;;;;;;2.06;76.26;100215.31;5099825;28;20036;-78
2022/04/04 03:42:47;;;;;;;6.28;3.05;;;;;;;2.02;75.90;100212.13;5101290;28;20032;-79
2022/04/04 03:45:14;;;;;;;6.28;2.95;;;;;;;2.05;75.82;100205.66;5103074;28;20082;-78
2022/04/04 03:47:40;;;;;;;7.57;3.30;;;;;;;1.95;75.86;100212.91;5106273;28;20039;-79
2022/04/04 03:50:09;;;;;;;6.07;2.63;;;;;;;1.93;76.33;100197.13;5108682;28;20059;-79
2022/04/04 03:52:34;;;;;;;6.53;3.00;;;;;;;1.94;75.68;100195.31;5113082;28;20040;-79
2022/04/04 03:55:00;;;;;;;7.38;2.65;;;;;;;1.95;75.52;100194.31;5112363;28;20601;-79
2022/04/04 03:57:27;;;;;;;4.47;2.47;;;;;;;2.05;74.96;100192.38;5109631;28;20043;-79
2022/04/04 03:59:52;;;;;;;5.18;2.47;;;;;;;2.06;74.89;100180.75;5105040;28;20035;-80
2022/04/04 04:02:18;;;;;;;5.97;2.47;;;;;;;1.97;74.84;100177.22;5104072;28;20028;-81
2022/04/04 04:04:44;;;;;;;7.70;3.10;;;;;;;1.94;75.17;100166.06;5102109;28;20040;-81
2022/04/04 04:07:14;;;;;;;;;;;;;;;1.98;74.92;100168.25;5100516;28;20048;-81
2022/04/04 04:09:39;;;;;;;5.28;2.35;;;;;;;2.05;74.34;100169.31;5100436;28;19912;-80
2022/04/04 04:12:05;;;;;;;8.68;2.65;;;;;;;2.06;74.21;100148.88;5098476;28;20032;-77
2022/04/04 04:14:31;;;;;;;6.20;2.55;;;;;;;2.06;73.61;100152.38;5098515;28;20364;-81
2022/04/04 04:16:57;;;;;;;;;;;;;;;2.09;74.00;100160.03;5099001;28;20024;-80
2022/04/04 04:22:06;;;;;;;8.38;3.13;;;;;;;1.99;74.23;100145.16;5098259;28;20039;-78
2022/04/04 04:24:31;;;;;;;8.18;3.35;;;;;;;1.95;74.45;100147.31;5098326;28;20032;-80
2022/04/04 04:26:57;;;;;;;6.05;2.80;;;;;;;2.13;73.97;100138.47;5099212;28;20040;-79
2022/04/04 04:29:22;;;;;;;6.53;3.13;;;;;;;2.05;73.84;100136.56;5099595;28;20059;-81
2022/04/04 04:31:48;;;;;;;5.07;2.57;;;;;;;2.02;74.04;100136.88;5100432;28;20036;-80
2022/04/04 04:34:13;;;;;;;7.32;3.38;;;;;;;2.08;74.01;100134.44;5100805;28;20036;-80
2022/04/04 04:36:39;;;;;;;6.25;2.58;;;;;;;2.10;73.74;100136.94;5100979;28;20056;-81
2022/04/04 04:39:08;;;;;;;7.68;3.25;;;;;;;2.13;73.54;100120.69;5102812;28;20058;-79
2022/04/04 04:41:34;;;;;;;8.35;3.75;;;;;;;2.13;73.69;100126.00;5112658;28;20043;-80
2022/04/04 04:44:02;;;;;;;7.22;3.25;;;;;;;2.13;73.39;100122.53;5113217;28;20028;-79
2022/04/04 04:46:31;;;;;;;6.80;3.33;;;;;;;2.11;72.89;100121.84;5115546;28;20032;-79
2022/04/04 04:48:57;;;;;;;6.63;3.05;;;;;;;2.07;73.48;100100.06;5114915;28;20096;-80
2022/04/04 04:51:23;;;;;;;8.45;3.33;;;;;;;2.09;73.46;100108.72;5113646;28;20047;-80
2022/04/04 04:53:49;;;;;;;9.07;3.47;;;;;;;2.11;72.91;100108.56;5111781;28;20075;-78
2022/04/04 04:56:14;;;;;;;7.97;3.47;;;;;;;2.13;72.82;100095.94;5107129;28;20065;-78
2022/04/04 04:58:40;;;;;;;11.48;3.50;;;;;;;2.15;72.82;100094.75;5103716;28;20051;-79
2022/04/04 05:01:05;;;;;;;7.32;3.50;;;;;;;2.15;72.58;100084.13;5101248;28;20479;-80
2022/04/04 05:03:31;;;;;;;10.52;3.67;;;;;;;2.09;72.62;100087.44;5100703;28;20043;-78
2022/04/04 05:05:56;;;;;;;7.83;3.23;;;;;;;2.08;73.15;100068.00;5099588;28;20031;-79
2022/04/04 05:08:22;;;;;;;7.95;3.10;;;;;;;2.15;72.50;100078.00;5099274;28;20347;-80
2022/04/04 05:10:48;;;;;;;10.10;3.85;;;;;;;2.14;72.64;100081.66;5099047;28;20069;-78
2022/04/04 05:13:16;;;;;;;11.00;3.33;;;;;;;2.19;72.41;100071.38;5100987;28;20390;-79
2022/04/04 05:15:41;;;;;;;11.07;3.25;;;;;;;2.13;72.50;100080.81;5098732;28;20288;-80
2022/04/04 05:18:06;;;;;;;8.43;3.50;;;;;;;2.14;72.49;100076.34;5099598;28;20028;-80
2022/04/04 05:20:32;;;;;;;11.98;4.55;;;;;;;2.18;71.89;100075.84;5098607;28;20028;-81
2022/04/04 05:22:57;;;;;;;9.07;3.90;;;;;;;2.23;72.32;100070.06;5099634;28;20059;-81
2022/04/04 05:25:23;;;;;;;10.27;4.18;;;;;;;2.27;71.56;100064.25;5099303;28;20032;-81
2022/04/04 05:27:50;;;;;;;13.70;4.50;;;;;;;2.31;72.13;100065.63;5099958;28;20067;-82
2022/04/04 05:30:16;;;;;;;7.97;3.50;;;;;;;2.36;71.60;100057.13;5101291;28;20040;-80
2022/04/04 05:32:43;;;;;;;7.97;3.65;;;;;;;2.32;71.62;100056.66;5098237;28;20039;-82
2022/04/04 05:35:09;;;;;;;8.65;3.50;;;;;;;2.35;71.07;100048.31;5098741;28;20036;-79
2022/04/04 05:37:35;;;;;;;9.70;3.58;;;;;;;2.45;71.03;100048.22;5099139;28;20046;-79
2022/04/04 05:40:03;;;;;;;8.15;3.38;;;;;;;2.32;71.73;100048.69;5096662;28;20390;-80
2022/04/04 05:42:29;;;;;;;8.80;4.03;;;;;;;2.45;71.07;100037.56;5098898;28;20371;-79
2022/04/04 05:44:54;;;;;;;9.48;3.60;;;;;;;2.38;71.40;100045.34;5099648;28;20032;-79
2022/04/04 05:47:20;;;;;;;10.77;4.13;;;;;;;2.39;71.80;100039.03;5098507;28;20078;-78
2022/04/04 05:49:48;;;;;;;9.82;2.97;;;;;;;2.55;71.10;100030.28;5098873;28;20282;-79
2022/04/04 05:52:15;;;;;;;8.90;3.60;;;;;;;2.63;70.73;100027.66;5097742;28;20032;-79
2022/04/04 05:54:53;;;;;;;10.38;3.50;;;;;;;2.70;70.43;100015.34;5098213;28;20032;-80
2022/04/04 05:57:23;;;;;;;10.48;2.78;;;;;;;2.79;70.00;100010.88;5096858;28;20066;-82
2022/04/04 05:59:49;;;;;;;8.30;3.78;;;;;;;2.82;69.94;100012.38;5096434;28;20043;-80
2022/04/04 06:02:16;;;;;;;9.15;2.75;;;;;;;2.79;69.75;100016.19;5097611;28;20028;-80
2022/04/04 06:04:41;;;;;;;11.05;3.53;;;;;;;2.87;70.06;100004.69;5097695;28;20028;-81
2022/04/04 06:07:06;;;;;;;8.70;3.43;;;;;;;2.90;70.03;99999.88;5098016;28;20039;-80
2022/04/04 06:09:32;;;;;;;7.33;3.13;;;;;;;2.84;70.06;99997.91;5096528;28;20046;-81
2022/04/04 06:11:57;;;;;;;7.20;2.23;;;;;;;2.87;69.68;99988.75;5096968;28;20380;-81
2022/04/04 06:14:23;;;;;;;6.97;3.33;;;;;;;2.90;69.90;99991.06;5095847;28;20032;-79
2022/04/04 06:16:48;;;;;;;10.68;2.72;;;;;;;2.94;69.77;99995.91;5097146;28;20382;-79
2022/04/04 06:19:13;;;;;;;7.20;3.10;;;;;;;2.93;69.87;99982.75;5097526;28;20043;-81
2022/04/04 06:21:39;;;;;;;6.73;2.60;;;;;;;3.01;69.67;99988.09;5095603;28;20469;-79
2022/04/04 06:24:05;;;;;;;5.85;2.75;;;;;;;2.99;70.02;99982.94;5096349;28;20016;-80
2022/04/04 06:26:31;;;;;;;6.57;2.83;;;;;;;3.01;70.30;99966.81;5097870;28;20032;-79
2022/04/04 06:28:57;;;;;;;7.57;2.85;;;;;;;3.12;69.54;99969.94;5096063;28;20036;-80
2022/04/04 06:31:25;;;;;;;6.00;2.58;;;;;;;3.06;69.74;99954.63;5096539;28;20148;-82
2022/04/04 06:33:50;;;;;;;8.32;3.00;;;;;;;3.13;69.73;99960.97;5098269;28;20027;-80
2022/04/04 06:36:15;;;;;;;7.03;2.50;;;;;;;3.17;69.20;99955.31;5096758;28;20028;-81
2022/04/04 06:38:41;;;;;;;5.67;3.40;;;;;;;3.24;69.28;99938.47;5097732;28;20625;-81
2022/04/04 06:41:06;;;;;;;7.43;2.97;;;;;;;3.28;68.94;99954.94;5098043;28;20036;-82
2022/04/04 06:43:31;;;;;;;8.37;3.27;;;;;;;3.31;68.88;99931.47;5098097;28;20054;-80
2022/04/04 06:45:57;;;;;;;8.00;3.20;;;;;;;3.36;68.88;99913.16;5097267;28;20266;-82
2022/04/04 06:48:23;;;;;;;8.63;2.73;;;;;;;3.45;68.56;99921.94;5097691;28;20034;-82
2022/04/04 06:50:49;;;;;;;7.85;2.67;;;;;;;3.49;68.95;99909.94;5098388;28;20266;-79
2022/04/04 06:53:15;;;;;;;6.50;3.00;;;;;;;3.49;69.00;99908.13;5096143;28;20024;-79
2022/04/04 06:55:44;;;;;;;10.98;3.50;;;;;;;3.62;68.50;99910.22;5098139;28;20028;-80
2022/04/04 06:58:09;;;;;;;7.80;2.58;;;;;;;3.70;68.39;99907.53;5098402;28;20039;-80
2022/04/04 07:00:35;;;;;;;9.83;3.30;;;;;;;3.75;68.44;99904.38;5097001;28;20067;-81
2022/04/04 07:03:01;;;;;;;8.20;3.00;;;;;;;3.78;68.53;99906.66;5096694;28;20077;-81
2022/04/04 07:05:27;;;;;;;5.93;2.35;;;;;;;3.90;68.09;99891.97;5097116;28;20107;-81
2022/04/04 07:07:52;;;;;;;;;;;;;;;3.90;68.35;99880.47;5097481;28;20131;-83
2022/04/04 07:10:19;;;;;;;7.40;3.25;;;;;;;3.87;68.34;99872.81;5096421;28;19950;-81
2022/04/04 07:12:45;;;;;;;7.22;3.30;;;;;;;3.87;68.78;99875.47;5097050;28;20116;-81
2022/04/04 07:15:11;;;;;;;;;;;;;;;3.87;68.45;99868.31;5096831;28;20089;-81
2022/04/04 07:17:40;;;;;;;7.65;2.65;;;;;;;3.81;68.78;99883.16;5096449;28;19908;-82
2022/04/04 07:20:06;;;;;;;5.38;2.53;;;;;;;3.96;68.28;99869.09;5096330;28;20042;-81
2022/04/04 07:22:33;;;;;;;;;;;;;;;4.01;68.41;99866.72;5096819;28;20429;-80
2022/04/04 07:24:58;;;;;;;7.28;2.78;;;;;;;4.00;68.04;99852.56;5096632;28;19908;-80
2022/04/04 07:27:24;;;;;;;6.50;2.93;;;;;;;4.11;68.18;99849.53;5097486;28;20036;-81
2022/04/04 07:29:49;;;;;;;8.23;2.90;;;;;;;4.20;67.26;99850.28;5095913;28;20039;-81
2022/04/04 07:32:15;;;;;;;7.65;3.08;;;;;;;4.28;67.82;99858.22;5098125;28;20073;-83
2022/04/04 07:34:41;;;;;;;7.37;2.93;;;;;;;4.26;67.64;99846.91;5096267;28;20060;-80
2022/04/04 07:37:06;;;;;;;6.17;2.70;;;;;;;4.27;67.87;99843.25;5095645;28;20028;-82
2022/04/04 07:39:32;;;;;;;6.07;2.45;;;;;;;4.33;67.41;99826.50;5097553;28;20368;-82
2022/04/04 07:41:57;;;;;;;5.75;2.85;;;;;;;4.30;67.39;99828.72;5097035;28;20047;-80
2022/04/04 07:44:23;;;;;;;7.70;2.50;;;;;;;4.38;67.51;99815.31;5098543;28;20067;-80
2022/04/04 07:46:48;;;;;;;11.13;2.73;;;;;;;4.44;66.83;99815.41;5105190;28;20024;-79
2022/04/04 07:49:14;;;;;;;6.93;2.60;;;;;;;4.61;66.41;99817.94;5108648;28;20308;-80
2022/04/04 07:51:39;;;;;;;5.87;2.80;;;;;;;4.67;65.86;99806.50;5099962;28;20048;-81
2022/04/04 07:54:05;;;;;;;7.07;3.10;;;;;;;4.62;66.20;99808.94;5097433;28;20444;-80
2022/04/04 07:56:30;;;;;;;6.68;2.78;;;;;;;4.68;66.80;99792.16;5094714;28;20024;-79
2022/04/04 07:58:56;;;;;;;7.63;2.63;;;;;;;4.73;66.63;99792.47;5095910;28;20048;-79
2022/04/04 08:01:21;;;;;;;5.63;2.53;;;;;;;4.82;66.13;99791.38;5095433;28;20032;-80
2022/04/04 08:03:46;;;;;;;7.20;2.53;;;;;;;4.83;65.93;99785.84;5095071;28;20473;-80
2022/04/04 08:06:12;;;;;;;8.98;2.97;;;;;;;4.85;66.31;99783.81;5096545;28;20290;-79
2022/04/04 08:08:37;;;;;;;6.53;2.90;;;;;;;5.04;65.66;99781.59;5096486;28;20107;-79
2022/04/04 08:11:03;;;;;;;6.15;2.78;;;;;;;5.08;65.46;99783.72;5095559;28;20311;-78
2022/04/04 08:13:30;;;;;;;6.85;2.67;;;;;;;5.06;65.57;99776.91;5094520;28;20035;-80
2022/04/04 08:15:56;;;;;;;8.93;3.15;;;;;;;5.07;65.08;99779.41;5095456;28;20020;-80
2022/04/04 08:18:22;;;;;;;8.55;3.80;;;;;;;5.09;64.54;99772.03;5096207;28;20024;-80
2022/04/04 08:20:47;;;;;;;6.07;2.58;;;;;;;5.17;64.37;99769.28;5095871;28;20070;-80
2022/04/04 08:23:13;;;;;;;5.33;2.60;;;;;;;5.26;64.57;99774.50;5095707;28;20119;-80
2022/04/04 08:25:40;;;;;;;6.10;2.60;;;;;;;5.28;64.00;99756.44;5095763;28;20815;-79
2022/04/04 08:28:06;;;;;;;7.50;3.00;;;;;;;5.29;63.30;99766.13;5096504;28;20289;-79
2022/04/04 08:30:32;;;;;;;7.43;3.22;;;;;;;5.25;63.52;99754.97;5098835;28;20040;-81
2022/04/04 08:32:58;;;;;;;7.00;2.45;;;;;;;5.16;63.83;99766.78;5097837;28;20042;-80
2022/04/04 08:35:23;;;;;;;4.78;2.30;;;;;;;5.23;63.89;99754.31;5098455;28;20028;-79
2022/04/04 08:37:49;;;;;;;8.00;2.95;;;;;;;5.35;63.38;99744.00;5100645;28;20077;-78
2022/04/04 08:40:18;;;;;;;5.15;2.08;;;;;;;5.31;62.78;99737.38;5100691;28;20121;-79
2022/04/04 08:42:44;;;;;;;6.22;2.60;;;;;;;5.12;63.28;99728.09;5100048;28;20030;-78
2022/04/04 08:45:11;;;;;;;6.72;3.00;;;;;;;5.07;63.96;99751.84;5099567;28;20039;-81
2022/04/04 08:47:39;;;;;;;7.43;3.38;;;;;;;5.17;63.54;99721.19;5098729;28;20031;-78
2022/04/04 08:50:04;;;;;;;7.22;2.75;;;;;;;5.16;63.97;99718.72;5100716;28;20051;-80
2022/04/04 08:52:30;;;;;;;6.43;2.97;;;;;;;5.21;64.07;99717.13;5099149;28;20028;-78
2022/04/04 08:54:55;;;;;;;5.88;2.75;;;;;;;5.23;64.16;99712.41;5098973;28;20101;-79
2022/04/04 08:57:21;;;;;;;6.85;2.67;;;;;;;5.34;64.47;99710.28;5096838;28;20036;-80
2022/04/04 08:59:47;;;;;;;5.25;2.58;;;;;;;5.34;64.67;99715.63;5098943;28;20040;-80
2022/04/04 09:02:13;;;;;;;6.88;2.58;;;;;;;5.30;64.45;99709.00;5098198;28;20054;-78
2022/04/04 09:04:40;;;;;;;6.28;3.22;;;;;;;5.27;64.35;99691.50;5097787;28;20040;-78
2022/04/04 09:07:08;;;;;;;10.63;3.63;;;;;;;5.33;64.91;99685.44;5097357;28;20391;-77
2022/04/04 09:09:49;;;;;;;6.55;2.90;;;;;;;5.23;64.52;99680.38;5097607;28;20034;-78
2022/04/04 09:12:19;;;;;;;7.72;2.85;;;;;;;5.14;65.42;99678.00;5098157;28;20105;-79
2022/04/04 09:14:58;;;;;;;7.22;3.17;;;;;;;4.99;66.39;99686.06;5089620;28;20039;-79
2022/04/04 09:17:27;;;;;;;7.30;2.63;;;;;;;5.05;66.86;99674.63;5098730;28;20052;-79
2022/04/04 09:19:52;;;;;;;8.05;2.83;;;;;;;4.98;67.20;99671.06;5096825;28;20039;-79
2022/04/04 09:22:19;;;;;;;5.03;2.53;;;;;;;5.01;67.80;99654.66;5096887;28;20036;-80
2022/04/04 09:24:47;;;;;;;7.20;3.13;;;;;;;4.95;67.31;99660.75;5097940;28;20297;-80
2022/04/04 09:27:17;;;;;;;6.38;2.60;;;;;;;5.09;67.01;99665.22;5098153;28;20107;-80
2022/04/04 09:29:43;;;;;;;6.50;3.03;;;;;;;5.14;66.49;99635.28;5099164;28;20047;-79
2022/04/04 09:32:12;;;;;;;6.32;2.92;;;;;;;5.21;66.43;99647.69;5098304;28;20114;-78
2022/04/04 09:35:02;;;;;;;6.30;3.13;;;;;;;5.27;65.63;99634.59;5099141;28;20039;-78
2022/04/04 09:37:33;;;;;;;6.93;2.80;;;;;;;5.05;66.93;99621.22;5098696;28;20024;-80
2022/04/04 09:40:19;;;;;;;9.25;3.58;;;;;;;5.14;65.47;99620.09;5099806;28;20031;-80
2022/04/04 09:42:53;;;;;;;12.77;4.38;;;;;;;5.30;65.83;99628.88;5099713;28;20501;-78
2022/04/04 09:45:28;;;;;;;5.82;2.90;;;;;;;5.28;65.60;99621.06;5097789;28;20027;-78
2022/04/04 09:47:55;;;;;;;6.35;3.22;;;;;;;5.37;65.60;99609.25;5097481;28;20394;-78
2022/04/04 09:50:37;;;;;;;6.55;2.33;;;;;;;5.46;65.74;99599.22;5097291;28;20039;-79
2022/04/04 09:53:09;;;;;;;7.85;3.20;;;;;;;5.44;65.40;99598.59;5095901;28;20047;-79
2022/04/04 09:55:39;;;;;;;7.75;2.80;;;;;;;5.51;65.64;99610.19;5097085;28;20119;-79
2022/04/04 09:58:07;;;;;;;5.57;2.50;;;;;;;5.50;65.11;99585.31;5098994;28;20032;-80
2022/04/04 10:00:37;;;;;;;7.38;3.08;;;;;;;5.40;66.14;99576.78;5098590;28;20051;-78
2022/04/04 10:03:05;;;;;;;8.55;3.30;;;;;;;5.49;66.36;99582.81;5100887;28;20032;-81
2022/04/04 10:05:31;;;;;;;9.50;2.90;;;;;;;5.38;67.91;99591.34;5100056;28;20031;-79
2022/04/04 10:07:57;;;;;;;;;;;;;;;5.14;68.78;99590.72;5098648;28;20133;-78
2022/04/04 10:10:28;;;;;;;6.80;3.10;;;;;;;5.09;70.46;99586.94;5096790;28;20018;-78
2022/04/04 10:12:54;;;;;;;7.47;2.80;;;;;;;5.06;71.73;99582.00;5099191;28;20133;-80
2022/04/04 10:15:21;;;;;;;;;;;;;;;4.94;72.25;99586.19;5097041;28;20035;-80
2022/04/04 10:17:48;;;;;;;;;;;;;;;4.86;72.13;99581.78;5097776;28;20273;-80
2022/04/04 10:20:14;;;;;;;8.73;3.23;;;;;;;4.81;73.39;99590.38;5097441;28;20388;-78
2022/04/04 10:22:39;;;;;;;;;;;;;;;4.63;74.84;99581.13;5095657;28;20061;-80
2022/04/04 10:25:07;;;;;;;7.95;3.33;;;;;;;4.59;75.92;99575.31;5095859;28;19908;-77
2022/04/04 10:27:36;;;;;;;8.20;3.60;;;;;;;4.59;76.37;99561.97;5096848;28;20028;-79
2022/04/04 10:30:08;;;;;;;7.28;3.58;;;;;;;4.70;76.54;99566.00;5095991;28;20135;-81
2022/04/04 10:32:34;;;;;;;7.05;3.47;;;;;;;4.69;78.04;99565.16;5096940;28;20024;-80
2022/04/04 10:35:12;;;;;;;9.60;4.35;;;;;;;4.64;77.72;99575.59;5097536;28;20061;-79
2022/04/04 10:37:46;;;;;;;10.50;4.00;;;;;;;4.50;77.82;99547.91;5097668;28;20028;-79
2022/04/04 10:40:20;;;;;;;10.30;4.32;;;;;;;4.46;78.94;99568.00;5097190;28;20024;-83
2022/04/04 10:43:00;;;;;;;8.50;4.07;;;;;;;4.43;79.25;99555.03;5097440;28;20031;-78
2022/04/04 10:45:28;;;;;;;10.43;4.47;;;;;;;4.53;79.59;99538.72;5097107;28;20024;-79
2022/04/04 10:48:03;;;;;;;6.72;4.13;;;;;;;4.44;80.29;99539.84;5099353;28;20066;-82
2022/04/04 10:50:33;;;;;;;8.57;4.28;;;;;;;4.35;80.36;99539.13;5100071;28;20039;-80
2022/04/04 10:53:03;;;;;;;8.32;3.53;;;;;;;4.28;80.85;99540.88;5098249;28;20028;-80
2022/04/04 10:55:38;;;;;;;7.80;3.88;;;;;;;4.18;81.37;99548.31;5097802;28;20067;-79
2022/04/04 10:58:19;;;;;;;8.38;3.65;;;;;;;4.08;82.14;99539.78;5098657;28;20426;-82
2022/04/04 11:01:18;;;;;;;14.05;4.97;;;;;;;3.98;83.79;99548.06;5097826;28;20032;-81
2022/04/04 11:03:58;;;;;;;12.85;4.25;;;;;;;3.94;84.46;99548.63;5098187;28;20024;-80
2022/04/04 11:09:26;;;;;;;9.10;3.97;;;;;;;3.81;85.64;99552.75;5097169;28;20047;-81
2022/04/04 11:12:14;;;;;;;11.13;4.63;;;;;;;3.79;86.87;99553.91;5096126;28;20036;-80
2022/04/04 11:14:41;;;;;;;10.23;4.47;;;;;;;3.83;86.43;99537.41;5097483;28;20063;-81
2022/04/04 11:17:19;;;;;;;10.73;4.90;;;;;;;3.75;86.98;99537.50;5098815;28;20028;-82
2022/04/04 11:20:04;;;;;;;11.93;4.60;;;;;;;3.71;87.71;99522.88;5098465;28;20028;-84
2022/04/04 11:22:43;;;;;;;8.93;3.90;;;;;;;3.65;88.15;99528.94;5098809;28;20036;-82
2022/04/04 11:25:19;;;;;;;10.98;5.00;;;;;;;3.64;88.61;99515.78;5099111;28;20111;-85
2022/04/04 11:27:49;;;;;;;11.55;5.72;;;;;;;3.60;89.37;99523.31;5099555;28;20023;-85
2022/04/04 11:30:20;;;;;;;10.77;5.32;;;;;;;3.64;90.10;99523.78;5098996;28;20056;-83
2022/04/04 11:32:49;;;;;;;9.10;4.22;;;;;;;3.56;89.42;99527.38;5097856;28;20107;-80
2022/04/04 11:35:27;;;;;;;10.48;5.00;;;;;;;3.51;89.94;99527.09;5100459;28;20056;-81
2022/04/04 11:37:59;;;;;;;11.57;4.95;;;;;;;3.49;90.41;99513.13;5097339;28;20031;-82
2022/04/04 11:40:38;;;;;;;10.25;5.28;;;;;;;3.48;89.96;99498.16;5097893;28;20115;-80
2022/04/04 11:43:14;;;;;;;10.43;4.75;;;;;;;3.45;89.51;99506.50;5096313;28;20134;-81
2022/04/04 11:45:42;;;;;;;11.00;5.22;;;;;;;3.44;89.58;99504.84;5098039;28;20024;-83